Time;durP1;ratioP1;P1;durP2;ratioP2;P2;SDS_P1;SDS_P2;PMS_P1;PMS_P2;Temp;Humidity;BMP_temperature;BMP_pressure;BME280_temperature;BME280_humidity;BME280_pressure;Samples;Min_cycle;Max_cycle;Signal;HPM_P1;HPM_P2
2021/01/10 00:13:59;;;;;;;80.95;30.70;;;;;;;-0.05;100.00;100853.80;10971433;80;21136;-85
2021/01/10 00:29:06;;;;;;;70.17;30.80;;;;;;;0.08;100.00;100865.83;11072852;80;21187;-83
2021/01/10 00:44:10;;;;;;;43.52;20.17;;;;;;;0.42;100.00;100876.25;10972858;80;21175;-83
2021/01/10 00:59:15;;;;;;;44.45;18.12;;;;;;;0.55;100.00;100899.03;11055797;80;21172;-83
2021/01/10 01:14:21;;;;;;;33.92;16.52;;;;;;;0.51;100.00;100896.16;10585066;83;21183;-82
2021/01/10 01:29:26;;;;;;;44.43;20.60;;;;;;;0.53;100.00;100913.72;11046662;80;21234;-82
2021/01/10 01:44:30;;;;;;;53.33;27.32;;;;;;;0.58;100.00;100922.14;10954041;80;21127;-83
2021/01/10 01:59:34;;;;;;;45.15;22.98;;;;;;;0.56;100.00;100918.79;10971922;79;21595;-81
2021/01/10 02:14:47;;;;;;;42.20;20.68;;;;;;;0.54;100.00;100935.64;10937501;80;22319;-83
2021/01/10 02:29:53;;;;;;;57.70;26.20;;;;;;;0.54;100.00;100928.32;10979273;80;21603;-82
2021/01/10 02:45:03;;;;;;;57.33;27.60;;;;;;;0.55;100.00;100940.34;11001409;80;21183;-83
2021/01/10 03:00:11;;;;;;;35.95;17.07;;;;;;;0.56;100.00;100946.73;10965415;80;21153;-82
2021/01/10 03:15:16;;;;;;;37.13;19.05;;;;;;;0.43;100.00;100950.19;10929517;80;21192;-82
2021/01/10 03:30:21;;;;;;;36.38;17.15;;;;;;;0.48;100.00;100953.92;11005237;80;21155;-84
2021/01/10 03:45:26;;;;;;;35.75;16.60;;;;;;;0.40;100.00;100949.48;10968888;80;21132;-85
2021/01/10 04:00:31;;;;;;;48.97;22.30;;;;;;;0.35;100.00;100954.79;10986983;79;21175;-86
2021/01/10 04:15:36;;;;;;;34.92;16.75;;;;;;;0.31;100.00;100958.38;10970194;80;21132;-84
2021/01/10 04:30:40;;;;;;;45.73;19.70;;;;;;;0.41;100.00;100965.34;11017040;80;21553;-85
2021/01/10 04:45:45;;;;;;;35.95;17.98;;;;;;;0.31;100.00;100951.46;10610183;84;21473;-85
2021/01/10 05:00:50;;;;;;;31.23;14.45;;;;;;;0.38;100.00;100944.80;10988124;80;21970;-85
2021/01/10 05:15:58;;;;;;;149.97;54.45;;;;;;;0.44;100.00;100951.89;11006044;80;21220;-85
2021/01/10 05:31:04;;;;;;;36.90;17.45;;;;;;;0.32;100.00;100959.61;11031603;80;21127;-85
2021/01/10 05:46:16;;;;;;;;;;;;;;;0.37;100.00;100963.77;11012247;80;21149;-85
2021/01/10 06:01:22;;;;;;;29.92;14.45;;;;;;;0.49;100.00;100975.80;10947317;80;20220;-86
2021/01/10 06:16:31;;;;;;;28.42;12.05;;;;;;;0.37;100.00;100989.15;10978883;80;21234;-86
2021/01/10 06:31:38;;;;;;;26.40;12.78;;;;;;;0.38;100.00;100988.69;11027081;79;21132;-85
2021/01/10 06:46:49;;;;;;;27.53;13.07;;;;;;;0.48;100.00;100994.77;11027615;80;21247;-85
2021/01/10 07:02:01;;;;;;;39.20;17.65;;;;;;;0.56;100.00;101000.13;11018205;80;21163;-84
2021/01/10 07:17:15;;;;;;;54.55;28.30;;;;;;;0.46;100.00;100997.01;10965904;80;21171;-84
2021/01/10 07:32:31;;;;;;;115.05;41.37;;;;;;;0.52;100.00;101010.17;10963722;80;21191;-83
2021/01/10 07:47:45;;;;;;;53.73;18.57;;;;;;;0.56;100.00;101015.16;10967103;80;21151;-81
2021/01/10 08:02:55;;;;;;;97.08;34.88;;;;;;;0.55;100.00;101020.39;10949267;80;21136;-81
2021/01/10 08:18:03;;;;;;;108.15;50.65;;;;;;;0.68;100.00;101048.77;10958722;80;21152;-82
2021/01/10 08:33:07;;;;;;;206.23;62.62;;;;;;;0.76;100.00;101066.12;10975366;80;21546;-83
2021/01/10 08:48:12;;;;;;;131.43;36.50;;;;;;;0.82;100.00;101071.09;10970277;80;21177;-87
2021/01/10 09:03:20;;;;;;;133.15;46.18;;;;;;;0.82;100.00;101072.38;10976266;80;21140;-79
2021/01/10 09:18:28;;;;;;;90.87;34.70;;;;;;;0.32;100.00;101078.34;10955410;80;21164;-77
2021/01/10 09:33:33;;;;;;;79.50;28.10;;;;;;;0.43;100.00;101091.36;10580849;84;21155;-79
2021/01/10 09:48:38;;;;;;;68.30;27.13;;;;;;;0.40;100.00;101083.72;10966102;80;21104;-84
2021/01/10 10:03:50;;;;;;;95.50;35.55;;;;;;;0.59;100.00;101081.36;10959500;80;21550;-79
2021/01/10 10:18:57;;;;;;;193.60;65.25;;;;;;;0.75;100.00;101090.29;10968306;80;21015;-79
2021/01/10 10:34:02;;;;;;;110.05;39.92;;;;;;;1.05;100.00;101084.93;10948521;80;21094;-79
2021/01/10 10:49:06;;;;;;;135.30;49.30;;;;;;;1.09;100.00;101079.21;10924359;80;21001;-82
2021/01/10 11:04:10;;;;;;;109.65;45.17;;;;;;;1.24;100.00;101084.27;10947268;80;21103;-84
2021/01/10 11:19:15;;;;;;;62.20;24.92;;;;;;;1.27;100.00;101075.13;10981534;80;21053;-84
2021/01/10 11:34:21;;;;;;;60.58;25.80;;;;;;;1.35;100.00;101066.63;10971836;80;21048;-84
2021/01/10 11:49:28;;;;;;;58.17;23.95;;;;;;;1.37;100.00;101066.57;10966863;80;20990;-85
2021/01/10 12:04:31;;;;;;;68.70;30.03;;;;;;;1.41;100.00;101069.43;10987688;80;21036;-82
2021/01/10 12:19:36;;;;;;;55.70;24.67;;;;;;;1.46;100.00;101064.94;10560482;84;21113;-84
2021/01/10 12:34:40;;;;;;;66.33;30.00;;;;;;;1.40;100.00;101053.09;10949345;80;21052;-78
2021/01/10 12:49:45;;;;;;;59.35;25.32;;;;;;;1.60;100.00;101048.45;10975352;80;21386;-87
2021/01/10 13:04:50;;;;;;;94.47;45.52;;;;;;;1.64;100.00;101050.47;10633172;82;21072;-86
2021/01/10 13:19:56;;;;;;;64.35;27.73;;;;;;;1.32;100.00;101039.15;10613591;82;21056;-87
2021/01/10 13:35:01;;;;;;;51.25;21.33;;;;;;;1.32;100.00;101039.15;10982724;80;21023;-86
2021/01/10 13:50:07;;;;;;;67.08;27.90;;;;;;;1.22;100.00;101061.06;10991282;80;21545;-86
2021/01/10 14:05:14;;;;;;;65.63;27.50;;;;;;;1.18;100.00;101070.30;10968137;80;21846;-82
2021/01/10 14:20:20;;;;;;;120.95;72.12;;;;;;;0.98;100.00;101062.34;10958705;80;21041;-81
2021/01/10 14:35:24;;;;;;;82.00;36.10;;;;;;;1.23;100.00;101047.25;10970369;80;21035;-81
2021/01/10 14:50:29;;;;;;;50.75;21.05;;;;;;;1.17;100.00;101050.05;10953359;80;21097;-81
2021/01/10 15:05:33;;;;;;;67.50;25.62;;;;;;;0.99;100.00;101033.48;10978613;80;21064;-82
2021/01/10 15:20:38;;;;;;;55.35;21.15;;;;;;;0.85;100.00;101035.72;10985126;80;21033;-78
2021/01/10 15:35:44;;;;;;;48.52;21.00;;;;;;;0.78;100.00;101032.05;11000828;79;21090;-76
2021/01/10 15:50:48;;;;;;;103.67;35.50;;;;;;;0.78;100.00;101032.05;10021843;87;21147;-76
2021/01/10 16:05:53;;;;;;;58.85;23.87;;;;;;;0.91;100.00;101034.19;10320874;83;21451;-75
2021/01/10 16:20:57;;;;;;;73.12;30.70;;;;;;;1.03;100.00;101044.10;10833410;80;21105;-76
2021/01/10 16:36:04;;;;;;;78.95;30.60;;;;;;;1.20;100.00;101047.37;10816850;80;21511;-78
2021/01/10 16:51:08;;;;;;;246.17;94.83;;;;;;;1.08;100.00;101061.58;10798901;80;21029;-79
2021/01/10 17:06:13;;;;;;;100.62;40.43;;;;;;;1.03;100.00;101058.31;10925149;80;21151;-79
2021/01/10 17:21:19;;;;;;;154.65;56.28;;;;;;;1.07;100.00;101056.02;10565364;82;21033;-77
2021/01/10 17:36:26;;;;;;;165.33;45.40;;;;;;;1.21;100.00;101052.08;10614912;83;21448;-77
2021/01/10 17:51:30;;;;;;;117.43;42.60;;;;;;;1.21;100.00;101074.88;10982099;80;21008;-80
2021/01/10 18:06:35;;;;;;;81.05;33.00;;;;;;;1.20;100.00;101078.81;10949663;80;21016;-81
2021/01/10 18:21:41;;;;;;;76.35;28.12;;;;;;;0.99;100.00;101092.46;10953801;79;21032;-79
2021/01/10 18:36:50;;;;;;;61.02;25.57;;;;;;;0.92;100.00;101091.44;10945717;80;21060;-79
2021/01/10 18:51:54;;;;;;;70.05;25.90;;;;;;;0.81;100.00;101078.43;10944252;80;21179;-81
2021/01/10 19:07:04;;;;;;;53.73;22.60;;;;;;;0.78;100.00;101081.56;10935015;80;21559;-80
2021/01/10 19:22:06;;;;;;;46.15;20.02;;;;;;;0.89;100.00;101057.96;10953755;80;21080;-79
2021/01/10 19:37:11;;;;;;;43.63;19.92;;;;;;;0.90;100.00;101055.75;10946800;80;21637;-78
2021/01/10 19:52:16;;;;;;;42.78;21.12;;;;;;;0.81;100.00;101041.44;10941313;80;21012;-79
2021/01/10 20:07:21;;;;;;;45.48;20.60;;;;;;;0.87;100.00;101039.94;10950666;80;21084;-82
2021/01/10 20:22:25;;;;;;;66.57;29.15;;;;;;;0.81;100.00;101031.93;10941897;79;21029;-81
2021/01/10 20:37:30;;;;;;;66.10;30.37;;;;;;;0.86;100.00;101022.74;10930038;80;21009;-80
2021/01/10 20:52:34;;;;;;;55.78;24.85;;;;;;;0.83;100.00;101015.94;10479699;82;21107;-80
2021/01/10 21:07:40;;;;;;;52.10;22.40;;;;;;;0.75;100.00;100999.02;10918044;80;21103;-80
2021/01/10 21:22:50;;;;;;;55.83;23.25;;;;;;;0.73;100.00;100987.92;10950989;80;21036;-81
2021/01/10 21:37:58;;;;;;;48.48;21.50;;;;;;;0.75;100.00;100979.22;10929936;80;21115;-80
2021/01/10 21:53:02;;;;;;;46.28;20.55;;;;;;;0.57;100.00;100969.52;10931515;80;21056;-80
2021/01/10 22:08:07;;;;;;;43.30;18.30;;;;;;;0.10;100.00;100960.78;10958325;80;21099;-80
2021/01/10 22:23:11;;;;;;;54.73;20.70;;;;;;;0.63;100.00;100940.90;11042561;80;21064;-80
2021/01/10 22:38:17;;;;;;;61.28;25.65;;;;;;;0.61;100.00;100938.84;10971683;80;21115;-80
2021/01/10 22:53:21;;;;;;;51.83;20.88;;;;;;;0.70;100.00;100932.05;10983252;80;21114;-82
2021/01/10 23:08:27;;;;;;;40.43;19.65;;;;;;;0.64;100.00;100927.09;10984613;80;21071;-78
2021/01/10 23:23:32;;;;;;;81.03;37.77;;;;;;;0.80;100.00;100923.50;11041655;80;21480;-80
2021/01/10 23:38:36;;;;;;;40.03;19.73;;;;;;;0.10;100.00;100917.38;10933230;80;21104;-78
2021/01/10 23:53:41;;;;;;;33.02;16.10;;;;;;;0.12;100.00;100917.72;11051750;80;21830;-81
